Time;durP1;ratioP1;P1;durP2;ratioP2;P2;SDS_P1;SDS_P2;PMS_P1;PMS_P2;Temp;Humidity;BMP_temperature;BMP_pressure;BME280_temperature;BME280_humidity;BME280_pressure;Samples;Min_cycle;Max_cycle;Signal;HPM_P1;HPM_P2
2023/08/25 00:00:00;;;;;;;5.63;4.40;;;21.90;99.90;;;;;;5040948;28;20275;-73
2023/08/25 00:02:25;;;;;;;5.17;4.30;;;21.90;99.90;;;;;;5033052;28;20231;-73
2023/08/25 00:04:51;;;;;;;5.67;4.80;;;21.90;99.90;;;;;;5024209;28;20993;-72
2023/08/25 00:07:17;;;;;;;4.60;4.20;;;21.90;99.90;;;;;;5019579;28;20231;-72
2023/08/25 00:09:45;;;;;;;5.70;3.80;;;21.90;99.90;;;;;;5007445;28;20215;-72
2023/08/25 00:12:12;;;;;;;6.97;6.00;;;21.90;99.90;;;;;;5020149;28;20797;-72
2023/08/25 00:14:37;;;;;;;5.00;4.60;;;21.90;99.90;;;;;;5053704;28;20478;-72
2023/08/25 00:17:03;;;;;;;5.10;4.57;;;21.80;99.90;;;;;;5018559;28;20538;-73
2023/08/25 00:19:29;;;;;;;5.23;4.73;;;21.80;99.90;;;;;;5021425;28;20235;-72
2023/08/25 00:21:55;;;;;;;5.00;4.50;;;21.80;99.90;;;;;;5037383;28;20218;-72
2023/08/25 00:24:21;;;;;;;8.43;4.90;;;21.90;99.90;;;;;;5019046;28;20923;-72
2023/08/25 00:26:46;;;;;;;5.23;4.20;;;21.80;99.90;;;;;;5008407;28;20247;-72
2023/08/25 00:29:12;;;;;;;7.43;6.23;;;21.80;99.90;;;;;;5035519;28;20250;-73
2023/08/25 00:31:38;;;;;;;4.60;4.00;;;21.80;99.90;;;;;;5054239;28;20358;-72
2023/08/25 00:34:04;;;;;;;10.03;4.20;;;21.80;99.90;;;;;;5049687;28;20215;-72
2023/08/25 00:36:30;;;;;;;11.70;5.60;;;21.80;99.90;;;;;;5023423;28;20236;-73
2023/08/25 00:38:56;;;;;;;9.73;4.43;;;21.80;99.90;;;;;;5023013;28;20484;-72
2023/08/25 00:41:22;;;;;;;7.20;4.00;;;21.70;99.90;;;;;;5049872;28;20226;-72
2023/08/25 00:43:48;;;;;;;8.83;5.13;;;21.70;99.90;;;;;;5043502;28;20219;-73
2023/08/25 00:46:15;;;;;;;4.60;4.20;;;21.70;99.90;;;;;;5020016;28;21139;-73
2023/08/25 00:48:42;;;;;;;5.20;3.70;;;21.70;99.90;;;;;;5020715;28;20653;-73
2023/08/25 00:51:11;;;;;;;5.20;4.47;;;21.70;99.90;;;;;;5018975;28;21074;-73
2023/08/25 00:53:38;;;;;;;5.60;5.03;;;21.70;99.90;;;;;;5053200;28;20526;-72
2023/08/25 00:56:04;;;;;;;5.53;4.50;;;21.60;99.90;;;;;;5050178;28;20477;-73
2023/08/25 00:58:30;;;;;;;5.77;4.27;;;21.60;99.90;;;;;;5039547;28;20484;-73
2023/08/25 01:00:58;;;;;;;4.80;4.33;;;21.60;99.90;;;;;;5022892;28;20587;-73
2023/08/25 01:03:24;;;;;;;4.90;4.40;;;21.60;99.90;;;;;;5020001;28;20218;-73
2023/08/25 01:05:50;;;;;;;6.10;5.43;;;21.50;99.90;;;;;;5054086;28;20473;-73
2023/08/25 01:08:19;;;;;;;4.30;3.67;;;21.50;99.90;;;;;;5019429;28;20219;-73
2023/08/25 01:11:47;;;;;;;5.50;5.00;;;21.50;99.90;;;;;;5036088;28;20925;-73
2023/08/25 01:14:42;;;;;;;7.00;4.83;;;21.40;99.90;;;;;;4922558;28;20482;-73
2023/08/25 01:17:29;;;;;;;5.03;4.53;;;21.40;99.90;;;;;;5019386;28;21043;-73
2023/08/25 01:20:09;;;;;;;7.20;4.60;;;21.40;99.90;;;;;;5021767;28;20501;-73
2023/08/25 01:23:13;;;;;;;5.07;4.57;;;21.40;99.90;;;;;;5006838;28;20461;-73
2023/08/25 01:25:40;;;;;;;5.17;4.60;;;21.40;99.90;;;;;;5004515;28;20473;-73
2023/08/25 01:28:06;;;;;;;5.33;4.67;;;21.40;99.90;;;;;;5034127;28;20984;-73
2023/08/25 01:30:34;;;;;;;6.67;5.10;;;21.40;99.90;;;;;;5022565;28;20482;-75
2023/08/25 01:33:02;;;;;;;5.20;4.80;;;21.40;99.90;;;;;;5037770;28;20470;-73
2023/08/25 01:35:50;;;;;;;5.60;5.10;;;21.30;99.90;;;;;;5007124;28;20477;-73
2023/08/25 01:39:03;;;;;;;4.60;4.20;;;21.20;99.90;;;;;;5032285;28;20508;-73
2023/08/25 01:41:33;;;;;;;5.00;4.17;;;21.20;99.90;;;;;;5022354;28;20473;-73
2023/08/25 01:44:02;;;;;;;4.10;3.70;;;21.20;99.90;;;;;;5025169;28;20462;-73
2023/08/25 01:46:30;;;;;;;5.33;4.70;;;21.20;99.90;;;;;;5017330;28;20548;-73
2023/08/25 01:48:58;;;;;;;5.17;4.70;;;21.20;99.90;;;;;;5007153;28;21063;-73
2023/08/25 01:51:25;;;;;;;6.37;4.50;;;21.20;99.90;;;;;;5032323;28;20446;-72
2023/08/25 01:53:54;;;;;;;4.87;4.47;;;21.20;99.90;;;;;;5037518;28;20576;-73
2023/08/25 01:56:22;;;;;;;5.47;4.33;;;21.20;99.90;;;;;;5020340;28;20502;-73
2023/08/25 01:58:48;;;;;;;5.97;5.37;;;21.20;99.90;;;;;;5002626;28;20481;-73
2023/08/25 02:01:14;;;;;;;7.40;4.70;;;21.20;99.90;;;;;;5031689;28;21141;-73
2023/08/25 02:03:40;;;;;;;6.17;5.17;;;21.20;99.90;;;;;;5024201;28;20507;-73
2023/08/25 02:06:08;;;;;;;8.27;5.77;;;21.20;99.90;;;;;;5022764;28;20215;-73
2023/08/25 02:08:34;;;;;;;5.67;4.87;;;21.20;99.90;;;;;;5010137;28;20795;-73
2023/08/25 02:11:00;;;;;;;6.50;5.10;;;21.20;99.90;;;;;;5024853;28;20466;-73
2023/08/25 02:13:26;;;;;;;6.87;4.70;;;21.10;99.90;;;;;;5005891;28;20554;-73
2023/08/25 02:15:53;;;;;;;5.77;4.23;;;21.10;99.90;;;;;;5037742;28;20308;-73
2023/08/25 02:18:18;;;;;;;6.63;4.87;;;21.10;99.90;;;;;;5022191;28;20251;-72
2023/08/25 02:20:44;;;;;;;6.53;5.03;;;21.10;99.90;;;;;;5024935;28;21013;-73
2023/08/25 02:23:12;;;;;;;5.67;5.07;;;21.10;99.90;;;;;;5036333;28;20219;-73
2023/08/25 02:25:38;;;;;;;5.77;5.27;;;21.10;99.90;;;;;;5038562;28;20465;-73
2023/08/25 02:28:05;;;;;;;7.43;4.57;;;21.10;99.90;;;;;;5022403;28;20222;-73
2023/08/25 02:30:30;;;;;;;6.43;5.33;;;21.10;99.90;;;;;;5025893;28;21077;-72
2023/08/25 02:32:56;;;;;;;8.27;5.23;;;21.10;99.90;;;;;;5016111;28;20484;-73
2023/08/25 02:35:23;;;;;;;7.35;5.75;;;21.10;99.90;;;;;;5022589;28;20219;-73
2023/08/25 02:38:09;;;;;;;7.43;5.40;;;21.10;99.90;;;;;;5028339;28;20505;-73
2023/08/25 02:40:35;;;;;;;9.80;5.80;;;21.00;99.90;;;;;;5026066;28;20215;-73
2023/08/25 02:43:03;;;;;;;6.17;5.30;;;21.00;99.90;;;;;;5042315;28;20476;-73
2023/08/25 02:45:29;;;;;;;6.43;5.47;;;21.00;99.90;;;;;;5023767;28;20223;-73
2023/08/25 02:47:56;;;;;;;5.67;4.93;;;21.00;99.90;;;;;;5025851;28;20511;-72
2023/08/25 02:50:22;;;;;;;6.20;5.60;;;20.90;99.90;;;;;;5032170;28;21064;-73
2023/08/25 02:52:48;;;;;;;5.87;5.27;;;20.90;99.90;;;;;;5026168;28;20215;-73
2023/08/25 02:55:18;;;;;;;6.40;5.30;;;20.90;99.90;;;;;;5006303;28;20535;-73
2023/08/25 02:57:43;;;;;;;9.63;5.97;;;20.90;99.90;;;;;;5057516;28;20482;-73
2023/08/25 03:00:11;;;;;;;11.90;6.53;;;20.90;99.90;;;;;;5034528;28;20476;-73
2023/08/25 03:02:37;;;;;;;7.23;5.80;;;20.90;99.90;;;;;;5021257;28;20221;-73
2023/08/25 03:05:03;;;;;;;10.30;5.57;;;20.80;99.90;;;;;;5053067;28;20461;-73
2023/08/25 03:07:29;;;;;;;6.63;5.50;;;20.90;99.90;;;;;;5041813;28;20235;-73
2023/08/25 03:09:55;;;;;;;6.33;5.33;;;20.90;99.90;;;;;;5026861;28;20501;-73
2023/08/25 03:12:21;;;;;;;6.23;5.60;;;20.90;99.90;;;;;;5053596;28;20253;-73
2023/08/25 03:14:47;;;;;;;7.60;5.70;;;20.90;99.90;;;;;;5023131;28;20256;-73
2023/08/25 03:17:13;;;;;;;6.60;5.50;;;20.80;99.90;;;;;;5051471;27;20234;-73
2023/08/25 03:19:38;;;;;;;5.13;4.73;;;20.80;99.90;;;;;;5023648;28;20222;-73
2023/08/25 03:22:04;;;;;;;6.30;5.73;;;20.80;99.90;;;;;;5022587;28;20320;-73
2023/08/25 03:24:32;;;;;;;6.17;5.63;;;20.70;99.90;;;;;;5052233;28;20228;-73
2023/08/25 03:26:58;;;;;;;6.37;5.07;;;20.60;99.90;;;;;;5027969;28;20469;-73
2023/08/25 03:29:25;;;;;;;6.27;4.77;;;20.60;99.90;;;;;;5035033;28;20223;-73
2023/08/25 03:31:51;;;;;;;7.37;5.57;;;20.70;99.90;;;;;;5027814;28;21172;-73
2023/08/25 03:34:17;;;;;;;7.70;4.73;;;20.60;99.90;;;;;;5021878;28;20245;-73
2023/08/25 03:36:42;;;;;;;6.50;5.17;;;20.50;99.90;;;;;;5038632;28;20238;-73
2023/08/25 03:39:10;;;;;;;5.57;5.00;;;20.50;99.90;;;;;;5005502;28;20289;-73
2023/08/25 03:41:36;;;;;;;6.20;5.53;;;20.60;99.90;;;;;;5024317;28;20555;-73
2023/08/25 03:44:02;;;;;;;5.50;5.00;;;20.60;99.90;;;;;;5003744;28;20482;-73
2023/08/25 03:46:28;;;;;;;6.17;5.60;;;20.60;99.90;;;;;;5024753;28;20277;-73
2023/08/25 03:48:54;;;;;;;5.50;5.00;;;20.60;99.90;;;;;;5037607;28;20505;-73
2023/08/25 03:51:20;;;;;;;5.80;5.20;;;20.70;99.90;;;;;;5020754;28;20772;-73
2023/08/25 03:53:45;;;;;;;6.87;5.30;;;20.60;99.90;;;;;;5026025;28;20220;-73
2023/08/25 03:56:11;;;;;;;6.50;5.90;;;20.50;99.90;;;;;;5020871;28;20238;-73
2023/08/25 03:58:38;;;;;;;5.70;5.20;;;20.50;99.90;;;;;;5023228;28;20223;-73
2023/08/25 04:01:04;;;;;;;6.57;5.97;;;20.50;99.90;;;;;;5020555;28;20502;-73
2023/08/25 04:03:29;;;;;;;7.20;6.50;;;20.50;99.90;;;;;;5051773;28;20233;-73
2023/08/25 04:05:55;;;;;;;7.17;6.23;;;20.50;99.90;;;;;;5006315;28;20219;-73
2023/08/25 04:08:21;;;;;;;7.33;5.50;;;20.50;99.90;;;;;;5016142;28;20627;-74
2023/08/25 04:10:47;;;;;;;6.97;5.87;;;20.50;99.90;;;;;;5023905;28;20506;-73
2023/08/25 04:13:13;;;;;;;6.27;5.77;;;20.50;99.90;;;;;;5021233;28;20286;-73
2023/08/25 04:15:39;;;;;;;5.90;5.23;;;20.50;99.90;;;;;;5050806;28;20488;-74
2023/08/25 04:18:06;;;;;;;9.03;7.37;;;20.40;99.90;;;;;;5033954;28;20804;-73
2023/08/25 04:20:32;;;;;;;7.60;6.87;;;19.90;99.90;;;;;;5012466;28;20454;-74
2023/08/25 04:23:01;;;;;;;6.47;5.80;;;19.80;99.90;;;;;;5008932;28;20216;-73
2023/08/25 04:25:29;;;;;;;7.67;5.73;;;20.10;99.90;;;;;;5032606;28;20586;-73
2023/08/25 04:27:57;;;;;;;7.10;5.80;;;20.30;99.90;;;;;;5021178;28;20466;-72
2023/08/25 04:30:23;;;;;;;6.87;6.17;;;20.30;99.90;;;;;;5018995;28;21056;-73
2023/08/25 04:32:51;;;;;;;7.63;6.23;;;20.40;99.90;;;;;;5009832;28;20492;-73
2023/08/25 04:35:18;;;;;;;6.77;6.17;;;20.40;99.90;;;;;;5050745;28;20906;-73
2023/08/25 04:37:47;;;;;;;6.67;5.30;;;20.40;99.90;;;;;;5037155;28;20481;-73
2023/08/25 04:40:14;;;;;;;6.73;6.03;;;20.40;99.90;;;;;;5033960;28;20511;-73
2023/08/25 04:42:41;;;;;;;5.20;4.70;;;20.50;99.90;;;;;;5020096;28;20490;-73
2023/08/25 04:45:09;;;;;;;6.30;5.70;;;20.50;99.90;;;;;;5049975;28;20466;-73
2023/08/25 04:47:34;;;;;;;5.90;5.33;;;20.50;99.90;;;;;;5022494;28;20481;-73
2023/08/25 04:50:03;;;;;;;5.87;5.37;;;20.40;99.90;;;;;;5022697;28;20462;-75
2023/08/25 04:52:29;;;;;;;6.20;5.40;;;20.50;99.90;;;;;;5034925;28;20234;-75
2023/08/25 04:54:55;;;;;;;7.53;5.57;;;20.40;99.90;;;;;;5032453;28;20470;-73
2023/08/25 04:57:21;;;;;;;5.73;5.23;;;20.40;99.90;;;;;;5030590;28;20490;-74
2023/08/25 04:59:47;;;;;;;6.50;5.90;;;20.40;99.90;;;;;;5031623;28;20220;-73
2023/08/25 05:02:14;;;;;;;6.57;5.93;;;20.40;99.90;;;;;;5009513;28;20458;-74
2023/08/25 05:04:40;;;;;;;6.37;5.00;;;20.30;99.90;;;;;;5002905;28;20690;-73
2023/08/25 05:07:07;;;;;;;5.63;5.13;;;20.40;99.90;;;;;;5030219;28;20585;-73
2023/08/25 05:09:33;;;;;;;5.27;4.80;;;20.40;99.90;;;;;;5002174;28;20924;-74
2023/08/25 05:11:59;;;;;;;7.00;5.50;;;20.30;99.90;;;;;;5015468;28;20521;-73
2023/08/25 05:14:25;;;;;;;7.47;6.10;;;20.40;99.90;;;;;;5013572;28;20230;-73
2023/08/25 05:16:51;;;;;;;7.50;6.80;;;20.30;99.90;;;;;;5019645;28;20572;-73
2023/08/25 05:19:25;;;;;;;6.83;6.23;;;20.40;99.90;;;;;;5013239;28;20581;-73
2023/08/25 05:21:52;;;;;;;7.40;5.87;;;20.40;99.90;;;;;;5048779;28;21094;-74
2023/08/25 05:24:24;;;;;;;6.37;5.60;;;20.40;99.90;;;;;;5013687;28;20485;-72
2023/08/25 05:26:52;;;;;;;6.23;5.67;;;20.40;99.90;;;;;;5015414;28;20227;-73
2023/08/25 05:29:27;;;;;;;7.57;6.90;;;20.40;99.90;;;;;;5000396;28;20996;-73
2023/08/25 05:31:56;;;;;;;7.13;6.43;;;20.40;99.90;;;;;;5027534;28;20477;-73
2023/08/25 05:34:31;;;;;;;7.20;6.50;;;20.30;99.90;;;;;;5024246;28;20473;-73
2023/08/25 05:37:01;;;;;;;7.30;6.60;;;20.20;99.90;;;;;;5044464;28;20596;-73
2023/08/25 05:39:27;;;;;;;7.57;6.80;;;20.20;99.90;;;;;;5019867;28;20482;-73
2023/08/25 05:41:52;;;;;;;7.47;6.77;;;20.30;99.90;;;;;;5058851;28;20481;-73
2023/08/25 05:44:18;;;;;;;8.67;7.00;;;20.30;99.90;;;;;;5054069;28;20231;-73
2023/08/25 05:46:44;;;;;;;13.10;8.13;;;20.40;99.90;;;;;;5010417;28;20227;-73
2023/08/25 05:49:10;;;;;;;8.07;7.27;;;20.20;99.90;;;;;;5028152;28;20252;-73
2023/08/25 05:51:36;;;;;;;6.83;6.10;;;20.20;99.90;;;;;;5028019;28;20616;-73
2023/08/25 05:54:02;;;;;;;9.23;6.77;;;20.30;99.90;;;;;;5026483;28;20227;-73
2023/08/25 05:56:27;;;;;;;7.63;6.93;;;20.40;99.90;;;;;;5052969;28;20245;-73
2023/08/25 05:58:54;;;;;;;7.73;6.97;;;20.40;99.90;;;;;;5057644;28;20344;-73
2023/08/25 06:01:20;;;;;;;7.47;6.77;;;20.50;99.90;;;;;;5025763;28;20216;-73
2023/08/25 06:03:46;;;;;;;7.57;6.87;;;20.50;99.90;;;;;;5058434;28;20482;-74
2023/08/25 06:06:12;;;;;;;8.00;6.40;;;20.50;99.90;;;;;;5026909;28;20520;-74
2023/08/25 06:08:38;;;;;;;7.93;6.97;;;20.50;99.90;;;;;;5010882;28;20728;-73
2023/08/25 06:11:04;;;;;;;6.80;6.20;;;20.50;99.90;;;;;;5010301;28;20852;-73
2023/08/25 06:13:30;;;;;;;6.57;5.90;;;20.50;99.90;;;;;;5028934;28;20338;-73
2023/08/25 06:15:55;;;;;;;8.13;7.33;;;20.50;99.90;;;;;;5055820;28;20954;-73
2023/08/25 06:18:21;;;;;;;8.13;7.27;;;20.50;99.90;;;;;;5028251;28;20239;-73
2023/08/25 06:20:50;;;;;;;7.80;7.00;;;20.50;99.90;;;;;;5024686;28;20340;-73
2023/08/25 06:23:15;;;;;;;8.00;7.30;;;20.50;99.90;;;;;;5028738;28;20219;-73
2023/08/25 06:25:42;;;;;;;8.80;7.90;;;20.50;99.90;;;;;;5026435;28;21081;-73
2023/08/25 06:28:07;;;;;;;8.17;6.43;;;20.40;99.90;;;;;;5043918;28;20254;-73
2023/08/25 06:30:33;;;;;;;6.70;6.00;;;20.30;99.90;;;;;;5040092;28;20474;-73
2023/08/25 06:32:59;;;;;;;7.73;6.30;;;20.20;99.90;;;;;;5026972;28;20211;-73
2023/08/25 06:35:25;;;;;;;7.70;6.90;;;20.20;99.90;;;;;;5023867;28;20254;-73
2023/08/25 06:37:50;;;;;;;7.00;6.33;;;20.30;99.90;;;;;;5027457;28;20286;-73
2023/08/25 06:40:16;;;;;;;6.17;5.57;;;20.30;99.90;;;;;;5028248;28;20512;-73
2023/08/25 06:42:42;;;;;;;5.50;5.00;;;20.40;99.90;;;;;;5026482;28;20219;-73
2023/08/25 06:45:10;;;;;;;7.37;6.00;;;20.40;99.90;;;;;;5040966;28;20262;-73
2023/08/25 06:47:35;;;;;;;5.47;4.97;;;20.30;99.90;;;;;;5012228;28;20467;-73
2023/08/25 06:50:02;;;;;;;8.63;5.10;;;20.40;99.90;;;;;;5009297;28;20224;-73
2023/08/25 06:52:28;;;;;;;8.20;5.30;;;20.50;99.90;;;;;;5060110;28;20232;-73
2023/08/25 06:54:54;;;;;;;5.40;4.90;;;20.60;99.90;;;;;;5031776;28;20569;-73
2023/08/25 06:57:19;;;;;;;5.10;4.70;;;20.60;99.90;;;;;;5060384;28;20538;-73
2023/08/25 06:59:45;;;;;;;6.13;5.63;;;20.60;99.90;;;;;;5013944;28;20247;-72
2023/08/25 07:02:11;;;;;;;5.80;5.27;;;20.60;99.90;;;;;;5057729;28;20224;-73
2023/08/25 07:04:37;;;;;;;5.60;5.20;;;20.60;99.90;;;;;;5032033;28;20224;-73
2023/08/25 07:07:02;;;;;;;5.93;5.43;;;20.70;99.90;;;;;;5028017;28;21023;-73
2023/08/25 07:09:28;;;;;;;5.33;4.83;;;20.70;99.90;;;;;;5060853;27;20339;-73
2023/08/25 07:11:54;;;;;;;8.67;5.47;;;20.70;99.90;;;;;;5031066;28;20689;-73
2023/08/25 07:14:20;;;;;;;5.33;4.80;;;20.70;99.90;;;;;;5030721;28;20342;-73
2023/08/25 07:16:46;;;;;;;4.83;4.53;;;20.70;99.90;;;;;;5029080;28;20233;-73
2023/08/25 07:19:14;;;;;;;6.17;5.57;;;20.80;99.90;;;;;;5030046;28;20486;-74
2023/08/25 07:21:39;;;;;;;6.20;5.60;;;20.80;99.90;;;;;;5012288;28;20607;-74
2023/08/25 07:24:05;;;;;;;6.30;5.70;;;20.80;99.90;;;;;;5029509;28;21074;-73
2023/08/25 07:26:31;;;;;;;7.50;6.07;;;20.80;99.90;;;;;;5030553;28;20230;-73
2023/08/25 07:28:56;;;;;;;8.87;5.67;;;20.80;99.90;;;;;;5032022;28;20244;-73
2023/08/25 07:31:25;;;;;;;6.20;5.60;;;20.80;99.90;;;;;;5027391;28;20223;-73
2023/08/25 07:33:51;;;;;;;6.57;5.87;;;20.80;99.90;;;;;;5031015;28;20227;-73
2023/08/25 07:36:19;;;;;;;5.83;5.23;;;20.80;99.90;;;;;;5028780;28;20473;-73
2023/08/25 07:38:44;;;;;;;5.83;5.30;;;20.90;99.90;;;;;;5030996;28;20215;-73
2023/08/25 07:41:11;;;;;;;7.93;6.20;;;20.90;99.90;;;;;;5028429;28;20490;-73
2023/08/25 07:43:37;;;;;;;8.77;5.70;;;20.90;99.90;;;;;;5031547;28;20277;-73
2023/08/25 07:46:03;;;;;;;5.60;5.10;;;20.90;99.90;;;;;;5058910;28;20481;-73
2023/08/25 07:48:29;;;;;;;6.13;5.53;;;21.00;99.90;;;;;;5043193;28;20301;-74
2023/08/25 07:50:55;;;;;;;5.90;5.40;;;21.00;99.90;;;;;;5013469;28;20474;-74
2023/08/25 07:53:20;;;;;;;5.37;4.87;;;21.10;99.90;;;;;;5030207;28;20319;-74
2023/08/25 07:55:46;;;;;;;7.70;5.00;;;21.10;99.90;;;;;;5028792;28;20219;-73
2023/08/25 07:58:13;;;;;;;8.50;5.30;;;21.10;99.90;;;;;;5044074;28;20219;-73
2023/08/25 08:00:40;;;;;;;5.20;4.80;;;21.20;99.90;;;;;;5041010;28;20273;-73
2023/08/25 08:03:11;;;;;;;5.20;4.70;;;21.20;99.90;;;;;;5029903;28;20465;-74
2023/08/25 08:05:38;;;;;;;5.60;4.93;;;21.30;99.90;;;;;;5030558;28;20462;-74
2023/08/25 08:08:04;;;;;;;6.10;5.27;;;21.30;99.90;;;;;;5030929;28;20215;-73
2023/08/25 08:10:30;;;;;;;5.67;5.27;;;21.50;99.90;;;;;;5029269;28;20473;-73
2023/08/25 08:12:56;;;;;;;6.13;5.53;;;21.60;99.90;;;;;;5028423;28;21096;-73
2023/08/25 08:15:22;;;;;;;6.10;5.50;;;21.80;99.90;;;;;;5043495;28;20250;-73
2023/08/25 08:17:48;;;;;;;6.30;4.77;;;21.90;99.90;;;;;;5039878;28;20470;-73
2023/08/25 08:20:14;;;;;;;6.33;5.80;;;21.90;99.90;;;;;;5029394;28;21147;-74
2023/08/25 08:22:41;;;;;;;5.20;4.80;;;22.00;99.90;;;;;;5030705;28;20223;-74
2023/08/25 08:25:11;;;;;;;5.93;5.30;;;22.10;99.90;;;;;;5039957;28;20794;-73
2023/08/25 08:27:37;;;;;;;5.80;5.30;;;22.10;99.90;;;;;;5040762;28;20489;-74
2023/08/25 08:30:04;;;;;;;7.83;5.67;;;22.30;99.90;;;;;;5031267;28;20470;-73
2023/08/25 08:32:30;;;;;;;7.60;5.10;;;22.40;99.90;;;;;;5023192;28;20504;-73
2023/08/25 08:34:56;;;;;;;5.93;5.33;;;22.50;99.90;;;;;;5025265;28;20521;-73
2023/08/25 08:37:22;;;;;;;7.53;6.00;;;22.60;99.90;;;;;;5013295;28;20238;-74
2023/08/25 08:39:47;;;;;;;5.90;5.30;;;22.60;99.90;;;;;;5025104;28;20566;-73
2023/08/25 08:42:14;;;;;;;5.67;5.17;;;22.70;99.90;;;;;;5039574;28;20257;-74
2023/08/25 08:44:46;;;;;;;5.43;4.93;;;22.80;99.90;;;;;;5028756;28;20304;-74
2023/08/25 08:47:14;;;;;;;6.40;5.30;;;22.80;99.90;;;;;;5055571;28;20504;-73
2023/08/25 08:49:40;;;;;;;5.53;4.70;;;23.00;99.90;;;;;;5042263;28;20589;-74
2023/08/25 08:52:07;;;;;;;5.70;4.50;;;23.10;99.90;;;;;;5027244;28;20474;-74
2023/08/25 08:54:35;;;;;;;5.10;4.57;;;23.20;99.90;;;;;;5057370;28;20524;-74
2023/08/25 08:57:01;;;;;;;4.43;4.13;;;23.30;99.90;;;;;;5027440;28;20469;-74
2023/08/25 08:59:27;;;;;;;6.10;4.53;;;23.50;99.90;;;;;;5037391;28;20993;-74
2023/08/25 09:01:54;;;;;;;4.60;4.20;;;23.50;99.90;;;;;;5023489;28;20215;-74
2023/08/25 09:04:22;;;;;;;5.33;4.83;;;23.60;99.90;;;;;;5026177;28;20477;-74
2023/08/25 09:06:52;;;;;;;5.93;5.10;;;23.70;99.90;;;;;;5024038;28;20584;-74
2023/08/25 09:09:19;;;;;;;7.53;5.03;;;23.90;99.90;;;;;;5022836;28;20470;-74
2023/08/25 09:11:48;;;;;;;5.47;4.97;;;24.00;99.90;;;;;;5036710;28;21183;-74
2023/08/25 09:14:25;;;;;;;4.40;4.10;;;24.10;99.90;;;;;;5024191;28;20513;-75
2023/08/25 09:16:55;;;;;;;5.47;4.57;;;24.00;99.90;;;;;;5054359;28;20484;-74
2023/08/25 09:19:21;;;;;;;5.23;4.83;;;24.10;99.90;;;;;;5040074;28;20510;-73
2023/08/25 09:21:46;;;;;;;5.30;4.80;;;24.00;99.90;;;;;;5028246;28;20984;-74
2023/08/25 09:24:19;;;;;;;4.33;3.93;;;24.00;99.90;;;;;;5058189;28;20685;-74
2023/08/25 09:26:46;;;;;;;6.10;4.53;;;23.90;99.90;;;;;;5041506;28;20300;-74
2023/08/25 09:29:11;;;;;;;3.90;3.60;;;23.90;99.90;;;;;;5023012;28;20481;-74
2023/08/25 09:31:37;;;;;;;6.00;5.40;;;24.00;99.90;;;;;;5024537;28;20482;-74
2023/08/25 09:34:09;;;;;;;4.93;4.50;;;23.90;99.90;;;;;;5039452;28;20223;-74
2023/08/25 09:36:48;;;;;;;4.60;4.30;;;23.90;99.90;;;;;;5027349;28;20881;-74
2023/08/25 09:39:14;;;;;;;4.40;4.00;;;23.90;99.90;;;;;;5027651;28;20986;-74
2023/08/25 09:41:42;;;;;;;4.77;4.37;;;23.90;99.90;;;;;;5023756;28;20473;-74
2023/08/25 09:44:08;;;;;;;4.13;3.80;;;24.00;99.90;;;;;;5024943;28;20219;-74
2023/08/25 09:46:34;;;;;;;4.93;4.50;;;24.00;99.90;;;;;;5026212;28;20834;-75
2023/08/25 09:49:04;;;;;;;4.57;4.17;;;24.10;99.90;;;;;;5027956;28;20690;-75
2023/08/25 09:51:40;;;;;;;5.20;4.07;;;24.10;99.90;;;;;;5040357;28;20345;-74
2023/08/25 09:54:16;;;;;;;4.50;4.10;;;24.20;99.90;;;;;;5010509;28;21095;-74
2023/08/25 09:56:44;;;;;;;4.43;4.10;;;24.20;99.90;;;;;;5026621;28;20481;-74
2023/08/25 09:59:13;;;;;;;4.67;4.27;;;24.30;99.90;;;;;;5009240;28;20477;-74
2023/08/25 10:01:41;;;;;;;4.67;4.27;;;24.40;99.90;;;;;;5055523;28;20476;-74
2023/08/25 10:04:07;;;;;;;4.90;4.10;;;24.60;99.90;;;;;;5008054;28;20542;-74
2023/08/25 10:06:37;;;;;;;4.60;3.60;;;24.70;99.90;;;;;;5039551;28;20478;-74
2023/08/25 10:09:04;;;;;;;3.83;3.43;;;24.90;99.90;;;;;;5026018;28;20714;-74
2023/08/25 10:11:34;;;;;;;3.73;3.30;;;24.90;99.90;;;;;;5040582;28;20614;-74
2023/08/25 10:14:02;;;;;;;2.90;2.70;;;25.00;99.90;;;;;;5026879;28;20481;-74
2023/08/25 10:16:30;;;;;;;4.30;3.50;;;24.90;99.90;;;;;;5029175;28;21120;-74
2023/08/25 10:18:58;;;;;;;3.63;3.43;;;24.90;99.90;;;;;;5039893;28;20488;-74
2023/08/25 10:21:25;;;;;;;4.20;3.80;;;24.90;99.90;;;;;;5025970;28;20531;-74
2023/08/25 10:23:53;;;;;;;2.77;2.57;;;25.00;99.90;;;;;;5025491;28;20499;-74
2023/08/25 10:26:20;;;;;;;4.80;3.20;;;25.00;99.90;;;;;;5024847;28;20508;-74
2023/08/25 10:28:46;;;;;;;3.97;3.37;;;25.10;99.90;;;;;;5027514;28;20473;-74
2023/08/25 10:31:13;;;;;;;3.27;3.07;;;25.20;99.90;;;;;;5028117;28;20481;-74
2023/08/25 10:33:49;;;;;;;3.63;3.10;;;25.30;99.90;;;;;;5028290;28;20938;-74
2023/08/25 10:36:19;;;;;;;3.20;2.90;;;25.40;99.90;;;;;;5030420;28;20520;-74
2023/08/25 10:38:54;;;;;;;4.33;3.30;;;25.50;99.90;;;;;;5028234;28;20466;-74
2023/08/25 10:41:23;;;;;;;3.33;3.13;;;25.70;99.90;;;;;;5028761;28;20465;-74
2023/08/25 10:43:53;;;;;;;3.50;3.13;;;25.80;99.90;;;;;;5027097;28;20469;-74
2023/08/25 10:46:20;;;;;;;3.47;3.17;;;25.80;99.90;;;;;;5029723;28;20520;-74
2023/08/25 10:48:50;;;;;;;3.50;3.20;;;25.80;99.90;;;;;;5030368;28;20558;-74
2023/08/25 10:51:20;;;;;;;4.33;4.03;;;25.80;99.90;;;;;;5027441;28;20471;-74
2023/08/25 10:53:49;;;;;;;3.00;2.80;;;26.00;99.90;;;;;;5013186;28;20544;-74
2023/08/25 10:56:25;;;;;;;3.60;3.30;;;26.10;99.90;;;;;;5012662;28;21250;-74
2023/08/25 10:58:58;;;;;;;3.60;3.30;;;26.10;99.90;;;;;;5046882;28;20484;-74
2023/08/25 11:01:33;;;;;;;3.33;3.00;;;26.20;99.90;;;;;;5043431;28;20453;-74
2023/08/25 11:04:05;;;;;;;3.47;3.20;;;26.10;99.90;;;;;;5027569;28;20470;-74
2023/08/25 11:06:38;;;;;;;3.30;3.03;;;26.20;99.90;;;;;;5044547;28;20466;-74
2023/08/25 11:09:04;;;;;;;3.87;3.47;;;26.10;99.90;;;;;;5029173;28;20476;-74
2023/08/25 11:11:34;;;;;;;5.33;3.93;;;26.00;99.90;;;;;;5060132;28;20582;-74
2023/08/25 11:13:59;;;;;;;4.13;3.80;;;26.00;99.90;;;;;;5029057;28;20920;-74
2023/08/25 11:16:25;;;;;;;4.70;3.60;;;26.00;99.90;;;;;;5025747;28;20492;-75
2023/08/25 11:18:51;;;;;;;4.03;3.60;;;25.80;99.90;;;;;;5029520;28;20231;-74
2023/08/25 11:21:16;;;;;;;4.53;4.13;;;25.80;99.90;;;;;;5054172;27;20215;-75
2023/08/25 11:23:44;;;;;;;4.40;4.10;;;25.80;99.90;;;;;;5058410;27;20838;-74
2023/08/25 11:26:15;;;;;;;4.40;4.10;;;25.80;99.90;;;;;;5027724;28;20215;-74
2023/08/25 11:28:41;;;;;;;4.30;3.90;;;25.90;99.90;;;;;;5056829;28;20478;-74
2023/08/25 11:31:07;;;;;;;4.63;4.23;;;26.00;99.90;;;;;;5025884;28;20553;-74
2023/08/25 11:33:33;;;;;;;5.90;4.30;;;26.00;99.90;;;;;;5057469;27;20709;-74
2023/08/25 11:35:59;;;;;;;4.63;4.23;;;26.00;99.90;;;;;;5027736;28;20307;-74
2023/08/25 11:38:29;;;;;;;4.13;3.77;;;26.10;99.90;;;;;;5041990;28;21058;-74
2023/08/25 11:40:55;;;;;;;5.77;4.00;;;26.10;99.90;;;;;;5027660;28;21296;-74
2023/08/25 11:43:27;;;;;;;4.27;3.87;;;26.10;99.90;;;;;;5039605;28;20477;-75
2023/08/25 11:45:52;;;;;;;4.03;3.73;;;26.10;99.90;;;;;;5042336;28;20543;-74
2023/08/25 11:48:19;;;;;;;5.33;3.90;;;26.10;99.90;;;;;;5060659;28;20314;-74
2023/08/25 11:50:46;;;;;;;4.37;3.97;;;26.10;99.90;;;;;;5012258;28;20215;-74
2023/08/25 11:53:12;;;;;;;4.87;4.20;;;26.10;99.90;;;;;;5061214;28;20488;-75
2023/08/25 11:55:38;;;;;;;4.70;4.30;;;26.00;99.90;;;;;;5029700;28;21201;-74
2023/08/25 11:58:07;;;;;;;4.70;4.30;;;26.00;99.90;;;;;;5029129;28;20227;-75
2023/08/25 12:00:39;;;;;;;4.80;4.00;;;25.90;99.90;;;;;;5042619;28;20223;-74
2023/08/25 12:03:06;;;;;;;4.30;4.00;;;25.80;99.90;;;;;;5026970;28;20486;-74
2023/08/25 12:05:35;;;;;;;5.23;4.30;;;25.80;99.90;;;;;;5027529;28;20473;-75
2023/08/25 12:08:02;;;;;;;4.30;3.87;;;25.80;99.90;;;;;;5028921;28;20494;-74
2023/08/25 12:10:32;;;;;;;8.87;4.50;;;25.80;99.90;;;;;;5026915;28;20566;-75
2023/08/25 12:12:59;;;;;;;4.60;3.77;;;25.80;99.90;;;;;;5027088;28;20477;-75
2023/08/25 12:15:24;;;;;;;5.00;3.97;;;25.80;99.90;;;;;;5010107;28;20465;-74
2023/08/25 12:17:51;;;;;;;4.53;4.13;;;25.80;99.90;;;;;;5009374;28;20517;-74
2023/08/25 12:20:18;;;;;;;4.63;4.23;;;25.70;99.90;;;;;;5010762;28;20223;-75
2023/08/25 12:22:57;;;;;;;4.03;3.60;;;25.80;99.90;;;;;;5028598;28;20465;-74
2023/08/25 12:25:23;;;;;;;5.77;3.87;;;25.80;99.90;;;;;;5029354;28;20445;-74
2023/08/25 12:27:49;;;;;;;4.63;4.23;;;25.80;99.90;;;;;;5057774;28;20466;-75
2023/08/25 12:30:16;;;;;;;4.30;3.90;;;25.80;99.90;;;;;;5027440;28;21010;-75
2023/08/25 12:32:42;;;;;;;4.80;4.33;;;25.80;99.90;;;;;;5038434;28;20481;-75
2023/08/25 12:35:08;;;;;;;5.10;4.60;;;25.80;99.90;;;;;;5056966;27;20528;-74
2023/08/25 12:37:34;;;;;;;5.77;4.30;;;25.80;99.90;;;;;;5027510;28;20466;-75
2023/08/25 12:39:59;;;;;;;5.20;4.80;;;25.70;99.90;;;;;;5026483;28;20215;-75
2023/08/25 12:42:25;;;;;;;4.13;3.83;;;25.70;99.90;;;;;;5056580;27;20215;-75
2023/08/25 12:44:51;;;;;;;4.90;4.50;;;25.80;99.90;;;;;;5039861;28;20338;-75
2023/08/25 12:47:17;;;;;;;5.30;4.43;;;25.80;99.90;;;;;;5027494;28;20223;-75